Lowell, OR (97452)

9:10 AM PDT on October 30, 2014 (GMT -0700)
Lost Creek | Change Station
CLOSE
Current Station
Personal Weather Station
Location: Dexter, OR
Elevation: 700 ft
Nearby Weather Stations

Elev 700 ft 43.92 °N, 122.82 °W | Updated 4 minutes ago

Overcast
Overcast
53.6 °F
Feels Like 53.6 °F
N
0.0
Wind Variable Wind from WSW
Gusts 2.0 mph

Today
High -- | Low -- °F
--% Chance of Precip.
Yesterday
High -- | Low -- °F
Precip. -- in
7:44 AM 6:03 PM
Waxing Crescent, 45% visible
Pressure 29.88 in
Visibility 0.1 miles
Clouds
Dew Point 52 °F
Humidity 96%
Rainfall 0.00 in
Snow Depth Not available.
UV 1.1 out of 12
Pollen .30 out of 12
Air Quality Not available.
Flu Activity Not available.
METAR KEUG 301554Z 00000KT 1/8SM R16R/1000V2200FT FG VV002 13/12 A2987 RMK AO2 TWR VIS M1/4 SLP116 T01280117

More Conditions Fewer Conditions

Pressure 29.88 in
Visibility 0.1 miles
Clouds
Dew Point 52 °F
Humidity 96%
Rainfall 0.00 in
Snow Depth Not available.
UV 1.1 out of 12
Pollen .30 out of 12
Air Quality Not available.
Flu Activity Not available.
METAR KEUG 301554Z 00000KT 1/8SM R16R/1000V2200FT FG VV002 13/12 A2987 RMK AO2 TWR VIS M1/4 SLP116 T01280117

More Conditions Fewer Conditions

10-Day Weather Forecast

Almanac

Astronomy

Oct. 30, 2014 Rise Set
Actual Time
Civil Twilight
Nautical Twilight
Astronomical Twilight
Moon
Length of Visible Light
Length of Day
Tomorrow will be .
, % of the Moon is Illuminated

Today's Extremes

State Highs State Lows

Community

WunderPhotos

Upload Photos

1,766,398 photos uploaded!

WunderBlogs® & News

Nearby

Air Quality

  Air Quality AQ Index Pollutant
Not available.

Snow Depth

Station Depth Elevation

Earthquake Activity

City Distance Mag. Time & Date
Minimum magnitude displayed is 2.5.

Coastal Water Temperatures

Place Temperature

Nearby Weather Stations